Main page
METAR-TAF:

METAR-TAF

Airports :

Clovis Municipal Airport

Clovis, New Mexico, United States

latitude: 34-26N, longitude: 103-05W, elevation: 4212 ft

Current weather observation

The report was made 1 hour and 16 minutes ago, at 15:56 UTC
Wind 22 mph from the Southwest
Temperature 75°F
Humidity 69%
Pressure 30.05 in. Hg
Visibility: 10 miles
Clear sky

METAR: KCVN 151556Z AUTO 22019KT 10SM CLR 24/18 A3005 RMK AO2 SLP138 T02440178

Time: 11:12 (17:12 UTC)


TAF: missing

Weather observations and forecasts of more than 4000 airports (METAR and TAF reports).

The available stations are represented by yellow and red dots on the map.

Hover mouse over dot to see the name of the station.

Then click to see weather observations and forecasts.

To change the map : click on the green buttons with a black cross to zoom in, on the green button with a dash to zoom out, or on the green arrows for adjacent maps.


METAR-TAF: